Sun River — WDE6902 — position and weather

sailwx.info

Track history (hours):
 
Tides and Currents Weather Stations Pressure Air Temp Water Temp Dewpoint Dewpoint Depression Visibility Wind Speed Wind Dir Waves Ship Positions

Sun River

Owner: Sun River, Broussard, LA. More information available from US FCC via Universal Licensing System and Coast Guard Vessel Documentation Center.

Last reported at 2017-Sep-13 15:59 UTC. Time now 2017-Sep-23 23:38 UTC.
Position N 29°27' W 090°43'.
Warning: this ship's position is 10 days out of date.

Length 70 m; draft 3.6 m.

Type: Diving. MMSI: 338366000.

Date/timePositionNaut miles runAvg speedWind from/ knotsBaromVisibWave heightAir tempDewpointWater temp
2017-Sep-13 15:59N 29°27' W 090°43'4 7.9
2017-Sep-13 15:31N 29°31' W 090°43'3 6.9
2017-Sep-13 15:00N 29°34' W 090°43'3 5.0
2017-Sep-13 14:30N 29°33' W 090°45'4 8.0
2017-Sep-13 14:01N 29°32' W 090°50'4 8.0
2017-Sep-13 13:30N 29°33' W 090°54'4 7.2
2017-Sep-13 12:59N 29°35' W 090°58'  
2017-Sep-06 00:52N 29°32' W 090°50'3 8.4
2017-Sep-06 00:30N 29°32' W 090°47'3 6.2
2017-Sep-06 00:01N 29°34' W 090°44'1 2.6
2017-Sep-05 23:31N 29°34' W 090°43'4 7.7
2017-Sep-05 23:01N 29°30' W 090°43'4 8.1
2017-Sep-05 22:28N 29°25' W 090°43'  
Track history (hours):
 
Tides and Currents Weather Stations Pressure Air Temp Water Temp Dewpoint Dewpoint Depression Visibility Wind Speed Wind Dir Waves Ship Positions

Sun River

Owner: Sun River, Broussard, LA. More information available from US FCC via Universal Licensing System and Coast Guard Vessel Documentation Center.

Last reported at 2017-Sep-13 15:59 UTC. Time now 2017-Sep-23 23:38 UTC.
Position N 29°27' W 090°43'.
Warning: this ship's position is 10 days out of date.

Length 70 m; draft 3.6 m.

Type: Diving. MMSI: 338366000.

Date/timePositionNaut miles runAvg speedWind from/ knotsBaromVisibWave heightAir tempDewpointWater temp
2017-Sep-13 15:59N 29°27' W 090°43'4 7.9
2017-Sep-13 15:31N 29°31' W 090°43'3 6.9
2017-Sep-13 15:00N 29°34' W 090°43'3 5.0
2017-Sep-13 14:30N 29°33' W 090°45'4 8.0
2017-Sep-13 14:01N 29°32' W 090°50'4 8.0
2017-Sep-13 13:30N 29°33' W 090°54'4 7.2
2017-Sep-13 12:59N 29°35' W 090°58'  
2017-Sep-06 00:52N 29°32' W 090°50'3 8.4
2017-Sep-06 00:30N 29°32' W 090°47'3 6.2
2017-Sep-06 00:01N 29°34' W 090°44'1 2.6
2017-Sep-05 23:31N 29°34' W 090°43'4 7.7
2017-Sep-05 23:01N 29°30' W 090°43'4 8.1
2017-Sep-05 22:28N 29°25' W 090°43'  

Dump ship's entire track history